Accueil
METAR-TAF:

METAR-TAF

Aéroports :

Aéroport du Touquet-Côte d'Opale

Le Touquet, France

latitude: 50-30-53N, longitude: 001-37-39E, altitude: 6 m

Observation

Le bulletin a été fait il y a 11 minutes, à 06:00 UTC
Vent 3 kt de est
Température 2°C
Humidité 87%
Pression 1033 hPa
Visibilité: 9000 m
Nuages épars à une hauteur de 1700 ft

METAR: LFAT 240600Z AUTO 10003KT 9000 SCT017 02/M00 Q1033 TEMPO 4000 BR

Heure: 07:11 (06:11 UTC)

Prévision

Le bulletin a été fait il y a 1 heure et 11 minutes, à 05:00 UTC
Prévision valable du 24 à 06 UTC au 24 à 15 UTC
Vent 5 kt de est/nord-est
Visibilité 10 km ou plus
pas de nuages en-dessous de 1500 mètres et pas de cumulonimbus.
Temporairement
du 24 à 06 UTC au 24 à 09 UTC
Visibilité: 4000 m
brume

TAF: LFAT 240500Z 2406/2415 07005KT CAVOK TEMPO 2406/2409 4000 BR

Observations et prévisions météorologiques de plus de 4000 aéroports (messages METAR et TAF).

Les stations disponibles sont représentées par des disques jaunes et rouges sur la carte.

Passer la souris dessus pour voir le nom de la station.

Cliquer dessus pour voir les observations et prévisions météorologiques.

Pour changer de carte: cliquez sur les boutons verts avec une croix noire pour zoomer, sur le bouton vert avec un tiret pour effectuer un zoom arrière, ou sur les flèches vertes pour les cartes adjacentes.


METAR-TAF: